sensor_id;sensor_type;location;lat;lon;timestamp;P1;durP1;ratioP1;P2;durP2;ratioP2
56039;SDS011;43937;41.366;2.072;2023-10-09T00:00:26;31.63;;;20.00;;
56039;SDS011;43937;41.366;2.072;2023-10-09T00:03:16;30.77;;;19.27;;
56039;SDS011;43937;41.366;2.072;2023-10-09T00:05:42;33.70;;;19.33;;
56039;SDS011;43937;41.366;2.072;2023-10-09T00:08:15;32.60;;;20.05;;
56039;SDS011;43937;41.366;2.072;2023-10-09T00:10:49;34.67;;;20.50;;
56039;SDS011;43937;41.366;2.072;2023-10-09T00:13:23;36.70;;;20.15;;
56039;SDS011;43937;41.366;2.072;2023-10-09T00:15:58;31.92;;;19.65;;
56039;SDS011;43937;41.366;2.072;2023-10-09T00:18:38;33.42;;;19.90;;
56039;SDS011;43937;41.366;2.072;2023-10-09T00:21:04;30.00;;;20.05;;
56039;SDS011;43937;41.366;2.072;2023-10-09T00:23:40;31.58;;;19.75;;
56039;SDS011;43937;41.366;2.072;2023-10-09T00:26:06;32.53;;;19.83;;
56039;SDS011;43937;41.366;2.072;2023-10-09T00:28:41;33.03;;;19.55;;
56039;SDS011;43937;41.366;2.072;2023-10-09T00:31:12;32.65;;;18.80;;
56039;SDS011;43937;41.366;2.072;2023-10-09T00:33:51;27.05;;;17.15;;
56039;SDS011;43937;41.366;2.072;2023-10-09T00:36:17;28.45;;;18.33;;
56039;SDS011;43937;41.366;2.072;2023-10-09T00:38:53;28.90;;;17.88;;
56039;SDS011;43937;41.366;2.072;2023-10-09T00:41:19;28.83;;;17.63;;
56039;SDS011;43937;41.366;2.072;2023-10-09T00:43:49;23.10;;;16.70;;
56039;SDS011;43937;41.366;2.072;2023-10-09T00:46:16;24.02;;;16.05;;
56039;SDS011;43937;41.366;2.072;2023-10-09T00:48:43;27.95;;;18.13;;
56039;SDS011;43937;41.366;2.072;2023-10-09T00:51:12;32.72;;;17.55;;
56039;SDS011;43937;41.366;2.072;2023-10-09T00:54:29;29.58;;;17.92;;
56039;SDS011;43937;41.366;2.072;2023-10-09T00:57:06;26.50;;;16.85;;
56039;SDS011;43937;41.366;2.072;2023-10-09T00:59:32;25.45;;;17.70;;
56039;SDS011;43937;41.366;2.072;2023-10-09T01:01:59;39.83;;;18.25;;
56039;SDS011;43937;41.366;2.072;2023-10-09T01:04:30;27.55;;;19.20;;
56039;SDS011;43937;41.366;2.072;2023-10-09T01:07:02;35.15;;;19.33;;
56039;SDS011;43937;41.366;2.072;2023-10-09T01:09:40;28.45;;;17.33;;
56039;SDS011;43937;41.366;2.072;2023-10-09T01:12:08;31.63;;;19.33;;
56039;SDS011;43937;41.366;2.072;2023-10-09T01:14:42;33.83;;;17.80;;
56039;SDS011;43937;41.366;2.072;2023-10-09T01:17:11;28.35;;;16.70;;
56039;SDS011;43937;41.366;2.072;2023-10-09T01:19:43;28.15;;;17.23;;
56039;SDS011;43937;41.366;2.072;2023-10-09T01:22:09;27.08;;;17.83;;
56039;SDS011;43937;41.366;2.072;2023-10-09T01:24:38;32.45;;;17.85;;
56039;SDS011;43937;41.366;2.072;2023-10-09T01:27:04;27.63;;;17.30;;
56039;SDS011;43937;41.366;2.072;2023-10-09T01:29:37;31.10;;;18.08;;
56039;SDS011;43937;41.366;2.072;2023-10-09T01:32:04;31.02;;;17.80;;
56039;SDS011;43937;41.366;2.072;2023-10-09T01:34:33;28.45;;;17.85;;
56039;SDS011;43937;41.366;2.072;2023-10-09T01:37:09;30.45;;;17.30;;
56039;SDS011;43937;41.366;2.072;2023-10-09T01:39:47;34.97;;;18.20;;
56039;SDS011;43937;41.366;2.072;2023-10-09T01:42:15;34.75;;;18.45;;
56039;SDS011;43937;41.366;2.072;2023-10-09T01:45:07;35.17;;;19.30;;
56039;SDS011;43937;41.366;2.072;2023-10-09T01:47:36;29.83;;;17.90;;
56039;SDS011;43937;41.366;2.072;2023-10-09T01:50:05;30.05;;;18.67;;
56039;SDS011;43937;41.366;2.072;2023-10-09T01:52:35;34.30;;;18.45;;
56039;SDS011;43937;41.366;2.072;2023-10-09T01:55:02;34.03;;;18.45;;
56039;SDS011;43937;41.366;2.072;2023-10-09T01:57:48;29.33;;;16.67;;
56039;SDS011;43937;41.366;2.072;2023-10-09T02:00:13;28.30;;;17.35;;
56039;SDS011;43937;41.366;2.072;2023-10-09T02:02:46;36.45;;;19.17;;
56039;SDS011;43937;41.366;2.072;2023-10-09T02:05:11;29.55;;;18.08;;
56039;SDS011;43937;41.366;2.072;2023-10-09T02:07:40;38.42;;;18.30;;
56039;SDS011;43937;41.366;2.072;2023-10-09T02:10:12;27.85;;;18.23;;
56039;SDS011;43937;41.366;2.072;2023-10-09T02:12:57;28.90;;;17.70;;
56039;SDS011;43937;41.366;2.072;2023-10-09T02:15:37;24.30;;;17.55;;
56039;SDS011;43937;41.366;2.072;2023-10-09T02:18:17;26.38;;;17.63;;
56039;SDS011;43937;41.366;2.072;2023-10-09T02:20:48;23.98;;;18.10;;
56039;SDS011;43937;41.366;2.072;2023-10-09T02:23:25;35.53;;;19.83;;
56039;SDS011;43937;41.366;2.072;2023-10-09T02:26:12;39.58;;;19.65;;
56039;SDS011;43937;41.366;2.072;2023-10-09T02:28:52;36.67;;;19.80;;
56039;SDS011;43937;41.366;2.072;2023-10-09T02:31:25;27.05;;;16.92;;
56039;SDS011;43937;41.366;2.072;2023-10-09T02:34:00;29.92;;;17.60;;
56039;SDS011;43937;41.366;2.072;2023-10-09T02:36:30;32.90;;;18.30;;
56039;SDS011;43937;41.366;2.072;2023-10-09T02:38:55;29.10;;;17.83;;
56039;SDS011;43937;41.366;2.072;2023-10-09T02:41:21;29.55;;;18.10;;
56039;SDS011;43937;41.366;2.072;2023-10-09T02:43:48;29.65;;;19.25;;
56039;SDS011;43937;41.366;2.072;2023-10-09T02:46:20;32.35;;;19.30;;
56039;SDS011;43937;41.366;2.072;2023-10-09T02:48:54;32.67;;;19.30;;
56039;SDS011;43937;41.366;2.072;2023-10-09T02:51:24;33.53;;;18.48;;
56039;SDS011;43937;41.366;2.072;2023-10-09T02:53:54;32.83;;;20.05;;
56039;SDS011;43937;41.366;2.072;2023-10-09T02:56:52;27.63;;;18.45;;
56039;SDS011;43937;41.366;2.072;2023-10-09T02:59:31;30.17;;;18.48;;
56039;SDS011;43937;41.366;2.072;2023-10-09T03:01:57;25.58;;;16.90;;
56039;SDS011;43937;41.366;2.072;2023-10-09T03:04:25;30.67;;;16.95;;
56039;SDS011;43937;41.366;2.072;2023-10-09T03:06:54;22.40;;;16.85;;
56039;SDS011;43937;41.366;2.072;2023-10-09T03:09:22;26.20;;;17.65;;
56039;SDS011;43937;41.366;2.072;2023-10-09T03:11:55;25.80;;;15.90;;
56039;SDS011;43937;41.366;2.072;2023-10-09T03:14:27;31.15;;;18.45;;
56039;SDS011;43937;41.366;2.072;2023-10-09T03:16:57;27.90;;;18.85;;
56039;SDS011;43937;41.366;2.072;2023-10-09T03:19:26;28.15;;;17.90;;
56039;SDS011;43937;41.366;2.072;2023-10-09T03:21:53;27.40;;;19.13;;
56039;SDS011;43937;41.366;2.072;2023-10-09T03:24:19;31.02;;;20.00;;
56039;SDS011;43937;41.366;2.072;2023-10-09T03:26:47;32.65;;;19.30;;
56039;SDS011;43937;41.366;2.072;2023-10-09T03:29:15;28.45;;;19.05;;
56039;SDS011;43937;41.366;2.072;2023-10-09T03:31:40;35.67;;;21.52;;
56039;SDS011;43937;41.366;2.072;2023-10-09T03:34:08;35.67;;;20.85;;
56039;SDS011;43937;41.366;2.072;2023-10-09T03:36:36;35.35;;;20.58;;
56039;SDS011;43937;41.366;2.072;2023-10-09T03:39:05;32.10;;;21.60;;
56039;SDS011;43937;41.366;2.072;2023-10-09T03:41:45;32.72;;;22.50;;
56039;SDS011;43937;41.366;2.072;2023-10-09T03:44:13;36.03;;;23.38;;
56039;SDS011;43937;41.366;2.072;2023-10-09T03:46:43;35.30;;;23.27;;
56039;SDS011;43937;41.366;2.072;2023-10-09T03:49:09;43.33;;;23.67;;
56039;SDS011;43937;41.366;2.072;2023-10-09T03:51:37;38.85;;;23.77;;
56039;SDS011;43937;41.366;2.072;2023-10-09T03:54:04;37.70;;;21.73;;
56039;SDS011;43937;41.366;2.072;2023-10-09T03:56:33;33.45;;;21.73;;
56039;SDS011;43937;41.366;2.072;2023-10-09T03:59:00;30.88;;;21.52;;
56039;SDS011;43937;41.366;2.072;2023-10-09T04:01:26;34.70;;;22.00;;
56039;SDS011;43937;41.366;2.072;2023-10-09T04:03:57;35.75;;;23.00;;
56039;SDS011;43937;41.366;2.072;2023-10-09T04:06:25;31.08;;;22.60;;
56039;SDS011;43937;41.366;2.072;2023-10-09T04:08:57;38.40;;;22.70;;
56039;SDS011;43937;41.366;2.072;2023-10-09T04:11:26;29.85;;;20.75;;
56039;SDS011;43937;41.366;2.072;2023-10-09T04:13:52;28.73;;;20.85;;
56039;SDS011;43937;41.366;2.072;2023-10-09T04:16:18;33.65;;;20.58;;
56039;SDS011;43937;41.366;2.072;2023-10-09T04:18:57;38.30;;;20.77;;
56039;SDS011;43937;41.366;2.072;2023-10-09T04:21:23;32.58;;;19.55;;
56039;SDS011;43937;41.366;2.072;2023-10-09T04:24:15;36.53;;;21.63;;
56039;SDS011;43937;41.366;2.072;2023-10-09T04:26:41;32.25;;;19.90;;
56039;SDS011;43937;41.366;2.072;2023-10-09T04:29:12;38.85;;;22.33;;
56039;SDS011;43937;41.366;2.072;2023-10-09T04:31:54;40.95;;;22.55;;
56039;SDS011;43937;41.366;2.072;2023-10-09T04:34:24;35.22;;;22.60;;
56039;SDS011;43937;41.366;2.072;2023-10-09T04:36:53;37.95;;;22.40;;
56039;SDS011;43937;41.366;2.072;2023-10-09T04:39:25;41.90;;;23.95;;
56039;SDS011;43937;41.366;2.072;2023-10-09T04:41:57;47.00;;;25.00;;
56039;SDS011;43937;41.366;2.072;2023-10-09T04:44:42;36.38;;;23.05;;
56039;SDS011;43937;41.366;2.072;2023-10-09T04:47:34;37.03;;;22.58;;
56039;SDS011;43937;41.366;2.072;2023-10-09T04:50:08;43.25;;;25.08;;
56039;SDS011;43937;41.366;2.072;2023-10-09T04:52:37;39.03;;;24.85;;
56039;SDS011;43937;41.366;2.072;2023-10-09T04:55:03;38.35;;;24.45;;
56039;SDS011;43937;41.366;2.072;2023-10-09T04:57:50;38.55;;;24.48;;
56039;SDS011;43937;41.366;2.072;2023-10-09T05:00:48;39.45;;;24.35;;
56039;SDS011;43937;41.366;2.072;2023-10-09T05:03:27;42.33;;;24.08;;
56039;SDS011;43937;41.366;2.072;2023-10-09T05:05:54;41.00;;;25.55;;
56039;SDS011;43937;41.366;2.072;2023-10-09T05:08:23;38.90;;;23.75;;
56039;SDS011;43937;41.366;2.072;2023-10-09T05:10:54;43.30;;;25.90;;
56039;SDS011;43937;41.366;2.072;2023-10-09T05:16:15;41.53;;;26.58;;
56039;SDS011;43937;41.366;2.072;2023-10-09T05:19:44;45.25;;;26.95;;
56039;SDS011;43937;41.366;2.072;2023-10-09T05:22:41;41.05;;;24.67;;
56039;SDS011;43937;41.366;2.072;2023-10-09T05:25:18;46.47;;;25.33;;
56039;SDS011;43937;41.366;2.072;2023-10-09T05:28:03;45.70;;;26.38;;
56039;SDS011;43937;41.366;2.072;2023-10-09T05:30:49;45.80;;;26.05;;
56039;SDS011;43937;41.366;2.072;2023-10-09T05:33:20;39.80;;;25.77;;
56039;SDS011;43937;41.366;2.072;2023-10-09T05:35:58;37.72;;;24.67;;
56039;SDS011;43937;41.366;2.072;2023-10-09T05:38:44;39.22;;;25.75;;
56039;SDS011;43937;41.366;2.072;2023-10-09T05:41:23;45.70;;;26.00;;
56039;SDS011;43937;41.366;2.072;2023-10-09T05:44:18;38.60;;;24.67;;
56039;SDS011;43937;41.366;2.072;2023-10-09T05:47:02;39.38;;;24.27;;
56039;SDS011;43937;41.366;2.072;2023-10-09T05:49:47;36.30;;;24.38;;
56039;SDS011;43937;41.366;2.072;2023-10-09T05:52:20;34.42;;;24.38;;
56039;SDS011;43937;41.366;2.072;2023-10-09T05:55:13;34.70;;;24.33;;
56039;SDS011;43937;41.366;2.072;2023-10-09T05:57:44;37.40;;;24.88;;
56039;SDS011;43937;41.366;2.072;2023-10-09T06:00:22;42.38;;;25.08;;
56039;SDS011;43937;41.366;2.072;2023-10-09T06:03:07;39.28;;;24.48;;
56039;SDS011;43937;41.366;2.072;2023-10-09T06:05:47;39.35;;;24.15;;
56039;SDS011;43937;41.366;2.072;2023-10-09T06:08:27;32.13;;;22.02;;
56039;SDS011;43937;41.366;2.072;2023-10-09T06:11:06;39.83;;;23.98;;
56039;SDS011;43937;41.366;2.072;2023-10-09T06:13:52;38.40;;;24.65;;
56039;SDS011;43937;41.366;2.072;2023-10-09T06:16:34;38.47;;;24.17;;
56039;SDS011;43937;41.366;2.072;2023-10-09T06:19:22;40.97;;;24.08;;
56039;SDS011;43937;41.366;2.072;2023-10-09T06:21:48;42.10;;;24.67;;
56039;SDS011;43937;41.366;2.072;2023-10-09T06:24:28;41.80;;;24.83;;
56039;SDS011;43937;41.366;2.072;2023-10-09T06:27:07;38.35;;;23.67;;
56039;SDS011;43937;41.366;2.072;2023-10-09T06:29:41;44.28;;;23.92;;
56039;SDS011;43937;41.366;2.072;2023-10-09T06:32:13;41.60;;;24.00;;
56039;SDS011;43937;41.366;2.072;2023-10-09T06:34:51;43.05;;;23.45;;
56039;SDS011;43937;41.366;2.072;2023-10-09T06:38:21;41.25;;;22.52;;
56039;SDS011;43937;41.366;2.072;2023-10-09T06:40:48;38.47;;;22.80;;
56039;SDS011;43937;41.366;2.072;2023-10-09T06:43:21;36.03;;;22.73;;
56039;SDS011;43937;41.366;2.072;2023-10-09T06:45:56;37.47;;;22.52;;
56039;SDS011;43937;41.366;2.072;2023-10-09T06:48:41;39.03;;;23.48;;
56039;SDS011;43937;41.366;2.072;2023-10-09T06:51:20;33.97;;;22.05;;
56039;SDS011;43937;41.366;2.072;2023-10-09T06:53:50;38.35;;;22.67;;
56039;SDS011;43937;41.366;2.072;2023-10-09T06:56:16;38.95;;;22.30;;
56039;SDS011;43937;41.366;2.072;2023-10-09T06:59:06;37.45;;;21.85;;
56039;SDS011;43937;41.366;2.072;2023-10-09T07:01:46;35.03;;;21.42;;
56039;SDS011;43937;41.366;2.072;2023-10-09T07:04:16;32.60;;;20.17;;
56039;SDS011;43937;41.366;2.072;2023-10-09T07:06:46;36.47;;;21.77;;
56039;SDS011;43937;41.366;2.072;2023-10-09T07:09:12;38.50;;;21.55;;
56039;SDS011;43937;41.366;2.072;2023-10-09T07:11:41;38.85;;;20.90;;
56039;SDS011;43937;41.366;2.072;2023-10-09T07:14:08;36.70;;;20.05;;
56039;SDS011;43937;41.366;2.072;2023-10-09T07:18:24;30.80;;;20.13;;
56039;SDS011;43937;41.366;2.072;2023-10-09T07:20:50;37.95;;;20.50;;
56039;SDS011;43937;41.366;2.072;2023-10-09T07:23:25;34.40;;;19.42;;
56039;SDS011;43937;41.366;2.072;2023-10-09T07:26:00;44.72;;;18.15;;
56039;SDS011;43937;41.366;2.072;2023-10-09T07:28:42;31.98;;;18.70;;
56039;SDS011;43937;41.366;2.072;2023-10-09T07:31:08;28.10;;;15.27;;
56039;SDS011;43937;41.366;2.072;2023-10-09T07:33:49;21.45;;;14.38;;
56039;SDS011;43937;41.366;2.072;2023-10-09T07:36:24;24.23;;;15.20;;
56039;SDS011;43937;41.366;2.072;2023-10-09T07:39:03;22.58;;;15.13;;
56039;SDS011;43937;41.366;2.072;2023-10-09T07:41:38;26.33;;;14.57;;
56039;SDS011;43937;41.366;2.072;2023-10-09T07:44:09;19.52;;;12.55;;
56039;SDS011;43937;41.366;2.072;2023-10-09T07:46:59;23.35;;;13.73;;
56039;SDS011;43937;41.366;2.072;2023-10-09T07:49:48;19.30;;;13.13;;
56039;SDS011;43937;41.366;2.072;2023-10-09T07:52:16;18.38;;;12.32;;
56039;SDS011;43937;41.366;2.072;2023-10-09T07:54:43;22.33;;;12.30;;
56039;SDS011;43937;41.366;2.072;2023-10-09T07:57:41;16.50;;;11.52;;
56039;SDS011;43937;41.366;2.072;2023-10-09T08:00:07;23.55;;;12.52;;
56039;SDS011;43937;41.366;2.072;2023-10-09T08:03:02;24.77;;;12.15;;
56039;SDS011;43937;41.366;2.072;2023-10-09T08:05:34;23.80;;;12.63;;
56039;SDS011;43937;41.366;2.072;2023-10-09T08:08:09;16.27;;;11.32;;
56039;SDS011;43937;41.366;2.072;2023-10-09T08:11:03;20.00;;;13.18;;
56039;SDS011;43937;41.366;2.072;2023-10-09T08:13:47;31.95;;;14.35;;
56039;SDS011;43937;41.366;2.072;2023-10-09T08:16:21;25.50;;;12.50;;
56039;SDS011;43937;41.366;2.072;2023-10-09T08:19:01;13.30;;;10.75;;
56039;SDS011;43937;41.366;2.072;2023-10-09T08:21:48;22.52;;;11.70;;
56039;SDS011;43937;41.366;2.072;2023-10-09T08:24:36;30.65;;;11.63;;
56039;SDS011;43937;41.366;2.072;2023-10-09T08:27:31;24.60;;;12.43;;
56039;SDS011;43937;41.366;2.072;2023-10-09T08:29:58;21.40;;;11.80;;
56039;SDS011;43937;41.366;2.072;2023-10-09T08:32:43;22.58;;;12.23;;
56039;SDS011;43937;41.366;2.072;2023-10-09T08:35:50;19.70;;;12.30;;
56039;SDS011;43937;41.366;2.072;2023-10-09T08:38:16;21.88;;;11.60;;
56039;SDS011;43937;41.366;2.072;2023-10-09T08:41:05;22.48;;;12.43;;
56039;SDS011;43937;41.366;2.072;2023-10-09T08:43:41;18.95;;;11.80;;
56039;SDS011;43937;41.366;2.072;2023-10-09T08:46:12;19.33;;;11.13;;
56039;SDS011;43937;41.366;2.072;2023-10-09T08:48:43;21.23;;;11.20;;
56039;SDS011;43937;41.366;2.072;2023-10-09T08:51:10;25.77;;;11.75;;
56039;SDS011;43937;41.366;2.072;2023-10-09T08:53:36;21.05;;;10.88;;
56039;SDS011;43937;41.366;2.072;2023-10-09T08:56:13;13.13;;;8.93;;
56039;SDS011;43937;41.366;2.072;2023-10-09T08:59:01;21.15;;;10.35;;
56039;SDS011;43937;41.366;2.072;2023-10-09T09:03:17;19.73;;;10.95;;
56039;SDS011;43937;41.366;2.072;2023-10-09T09:05:45;19.40;;;10.82;;
56039;SDS011;43937;41.366;2.072;2023-10-09T09:08:27;18.10;;;10.13;;
56039;SDS011;43937;41.366;2.072;2023-10-09T09:13:38;17.58;;;10.60;;
56039;SDS011;43937;41.366;2.072;2023-10-09T09:16:23;17.88;;;10.13;;
56039;SDS011;43937;41.366;2.072;2023-10-09T09:19:04;19.63;;;11.35;;
56039;SDS011;43937;41.366;2.072;2023-10-09T09:21:36;18.38;;;10.30;;
56039;SDS011;43937;41.366;2.072;2023-10-09T09:24:06;17.55;;;9.18;;
56039;SDS011;43937;41.366;2.072;2023-10-09T09:26:55;18.58;;;10.38;;
56039;SDS011;43937;41.366;2.072;2023-10-09T09:29:56;16.45;;;9.82;;
56039;SDS011;43937;41.366;2.072;2023-10-09T09:32:28;19.55;;;9.40;;
56039;SDS011;43937;41.366;2.072;2023-10-09T09:35:00;16.88;;;8.93;;
56039;SDS011;43937;41.366;2.072;2023-10-09T09:37:29;19.48;;;9.23;;
56039;SDS011;43937;41.366;2.072;2023-10-09T09:39:59;22.38;;;10.13;;
56039;SDS011;43937;41.366;2.072;2023-10-09T09:42:36;16.17;;;9.93;;
56039;SDS011;43937;41.366;2.072;2023-10-09T09:45:10;16.10;;;8.82;;
56039;SDS011;43937;41.366;2.072;2023-10-09T09:47:36;14.10;;;10.10;;
56039;SDS011;43937;41.366;2.072;2023-10-09T09:50:04;15.70;;;9.88;;
56039;SDS011;43937;41.366;2.072;2023-10-09T09:52:37;18.23;;;10.02;;
56039;SDS011;43937;41.366;2.072;2023-10-09T09:55:10;15.68;;;10.60;;
56039;SDS011;43937;41.366;2.072;2023-10-09T09:57:47;17.63;;;10.55;;
56039;SDS011;43937;41.366;2.072;2023-10-09T10:00:18;19.00;;;9.68;;
56039;SDS011;43937;41.366;2.072;2023-10-09T10:03:05;17.60;;;11.32;;
56039;SDS011;43937;41.366;2.072;2023-10-09T10:05:34;20.60;;;10.23;;
56039;SDS011;43937;41.366;2.072;2023-10-09T10:08:00;18.13;;;9.63;;
56039;SDS011;43937;41.366;2.072;2023-10-09T10:10:33;12.93;;;8.35;;
56039;SDS011;43937;41.366;2.072;2023-10-09T10:13:13;14.40;;;8.10;;
56039;SDS011;43937;41.366;2.072;2023-10-09T10:18:33;10.98;;;7.68;;
56039;SDS011;43937;41.366;2.072;2023-10-09T10:21:22;10.68;;;7.10;;
56039;SDS011;43937;41.366;2.072;2023-10-09T10:23:57;10.55;;;6.60;;
56039;SDS011;43937;41.366;2.072;2023-10-09T10:26:32;13.98;;;7.13;;
56039;SDS011;43937;41.366;2.072;2023-10-09T10:29:13;11.73;;;7.60;;
56039;SDS011;43937;41.366;2.072;2023-10-09T10:34:23;11.40;;;7.35;;
56039;SDS011;43937;41.366;2.072;2023-10-09T10:36:52;13.73;;;7.55;;
56039;SDS011;43937;41.366;2.072;2023-10-09T10:39:25;10.18;;;7.93;;
56039;SDS011;43937;41.366;2.072;2023-10-09T10:42:09;11.25;;;7.35;;
56039;SDS011;43937;41.366;2.072;2023-10-09T10:44:41;11.50;;;6.65;;
56039;SDS011;43937;41.366;2.072;2023-10-09T10:47:11;16.98;;;7.50;;
56039;SDS011;43937;41.366;2.072;2023-10-09T10:49:48;9.60;;;6.88;;
56039;SDS011;43937;41.366;2.072;2023-10-09T10:52:25;12.52;;;7.15;;
56039;SDS011;43937;41.366;2.072;2023-10-09T10:57:13;14.32;;;7.35;;
56039;SDS011;43937;41.366;2.072;2023-10-09T10:59:45;8.75;;;6.47;;
56039;SDS011;43937;41.366;2.072;2023-10-09T11:02:11;11.40;;;6.45;;
56039;SDS011;43937;41.366;2.072;2023-10-09T11:04:37;16.13;;;7.20;;
56039;SDS011;43937;41.366;2.072;2023-10-09T11:07:10;12.55;;;6.68;;
56039;SDS011;43937;41.366;2.072;2023-10-09T11:12:28;19.23;;;7.22;;
56039;SDS011;43937;41.366;2.072;2023-10-09T11:15:12;13.55;;;6.97;;
56039;SDS011;43937;41.366;2.072;2023-10-09T11:17:57;16.13;;;7.53;;
56039;SDS011;43937;41.366;2.072;2023-10-09T11:20:30;11.18;;;7.85;;
56039;SDS011;43937;41.366;2.072;2023-10-09T11:22:58;15.77;;;7.20;;
56039;SDS011;43937;41.366;2.072;2023-10-09T11:25:44;11.77;;;7.30;;
56039;SDS011;43937;41.366;2.072;2023-10-09T11:28:21;12.32;;;7.32;;
56039;SDS011;43937;41.366;2.072;2023-10-09T11:31:12;14.63;;;7.07;;
56039;SDS011;43937;41.366;2.072;2023-10-09T11:33:48;17.10;;;7.05;;
56039;SDS011;43937;41.366;2.072;2023-10-09T11:36:16;20.52;;;9.40;;
56039;SDS011;43937;41.366;2.072;2023-10-09T11:38:57;11.80;;;7.05;;
56039;SDS011;43937;41.366;2.072;2023-10-09T11:41:42;20.23;;;6.72;;
56039;SDS011;43937;41.366;2.072;2023-10-09T11:44:09;10.48;;;7.32;;
56039;SDS011;43937;41.366;2.072;2023-10-09T11:46:58;12.63;;;6.15;;
56039;SDS011;43937;41.366;2.072;2023-10-09T11:49:48;14.55;;;7.82;;
56039;SDS011;43937;41.366;2.072;2023-10-09T11:52:30;12.40;;;6.40;;
56039;SDS011;43937;41.366;2.072;2023-10-09T11:55:02;11.77;;;6.70;;
56039;SDS011;43937;41.366;2.072;2023-10-09T11:57:32;9.40;;;6.10;;
56039;SDS011;43937;41.366;2.072;2023-10-09T12:00:03;12.75;;;6.47;;
56039;SDS011;43937;41.366;2.072;2023-10-09T12:02:47;11.40;;;5.85;;
56039;SDS011;43937;41.366;2.072;2023-10-09T12:05:14;7.88;;;5.53;;
56039;SDS011;43937;41.366;2.072;2023-10-09T12:07:43;12.23;;;6.32;;
56039;SDS011;43937;41.366;2.072;2023-10-09T12:10:10;12.00;;;6.45;;
56039;SDS011;43937;41.366;2.072;2023-10-09T12:12:36;9.65;;;5.88;;
56039;SDS011;43937;41.366;2.072;2023-10-09T12:15:02;8.75;;;5.13;;
56039;SDS011;43937;41.366;2.072;2023-10-09T12:18:42;14.00;;;5.68;;
56039;SDS011;43937;41.366;2.072;2023-10-09T12:21:11;8.77;;;5.22;;
56039;SDS011;43937;41.366;2.072;2023-10-09T12:23:40;16.95;;;6.38;;
56039;SDS011;43937;41.366;2.072;2023-10-09T12:26:08;14.27;;;6.03;;
56039;SDS011;43937;41.366;2.072;2023-10-09T12:28:39;16.15;;;5.90;;
56039;SDS011;43937;41.366;2.072;2023-10-09T12:31:05;9.27;;;5.60;;
56039;SDS011;43937;41.366;2.072;2023-10-09T12:33:31;9.43;;;5.43;;
56039;SDS011;43937;41.366;2.072;2023-10-09T12:35:57;13.95;;;6.85;;
56039;SDS011;43937;41.366;2.072;2023-10-09T12:38:26;11.70;;;5.53;;
56039;SDS011;43937;41.366;2.072;2023-10-09T12:41:03;9.75;;;5.80;;
56039;SDS011;43937;41.366;2.072;2023-10-09T12:43:48;8.48;;;5.32;;
56039;SDS011;43937;41.366;2.072;2023-10-09T12:46:13;12.38;;;6.43;;
56039;SDS011;43937;41.366;2.072;2023-10-09T12:48:42;13.05;;;5.97;;
56039;SDS011;43937;41.366;2.072;2023-10-09T12:51:13;16.63;;;6.28;;
56039;SDS011;43937;41.366;2.072;2023-10-09T12:53:43;11.75;;;6.00;;
56039;SDS011;43937;41.366;2.072;2023-10-09T12:56:09;11.23;;;5.63;;
56039;SDS011;43937;41.366;2.072;2023-10-09T12:58:37;9.93;;;5.80;;
56039;SDS011;43937;41.366;2.072;2023-10-09T13:01:02;18.20;;;5.80;;
56039;SDS011;43937;41.366;2.072;2023-10-09T13:03:35;9.82;;;5.70;;
56039;SDS011;43937;41.366;2.072;2023-10-09T13:06:03;8.45;;;6.28;;
56039;SDS011;43937;41.366;2.072;2023-10-09T13:08:32;9.85;;;6.10;;
56039;SDS011;43937;41.366;2.072;2023-10-09T13:11:07;11.55;;;6.20;;
56039;SDS011;43937;41.366;2.072;2023-10-09T13:13:40;10.80;;;5.95;;
56039;SDS011;43937;41.366;2.072;2023-10-09T13:16:16;15.60;;;5.32;;
56039;SDS011;43937;41.366;2.072;2023-10-09T13:18:57;13.20;;;6.07;;
56039;SDS011;43937;41.366;2.072;2023-10-09T13:21:28;14.23;;;6.05;;
56039;SDS011;43937;41.366;2.072;2023-10-09T13:23:59;8.20;;;5.60;;
56039;SDS011;43937;41.366;2.072;2023-10-09T13:26:28;8.75;;;5.40;;
56039;SDS011;43937;41.366;2.072;2023-10-09T13:28:55;8.15;;;5.85;;
56039;SDS011;43937;41.366;2.072;2023-10-09T13:31:22;10.43;;;6.18;;
56039;SDS011;43937;41.366;2.072;2023-10-09T13:33:51;11.00;;;5.70;;
56039;SDS011;43937;41.366;2.072;2023-10-09T13:36:24;16.30;;;7.18;;
56039;SDS011;43937;41.366;2.072;2023-10-09T13:38:56;15.93;;;5.85;;
56039;SDS011;43937;41.366;2.072;2023-10-09T13:41:23;12.57;;;5.95;;
56039;SDS011;43937;41.366;2.072;2023-10-09T13:43:54;9.50;;;5.90;;
56039;SDS011;43937;41.366;2.072;2023-10-09T13:46:22;11.70;;;6.47;;
56039;SDS011;43937;41.366;2.072;2023-10-09T13:48:48;9.93;;;6.20;;
56039;SDS011;43937;41.366;2.072;2023-10-09T13:51:14;12.50;;;6.03;;
56039;SDS011;43937;41.366;2.072;2023-10-09T13:53:44;10.93;;;6.38;;
56039;SDS011;43937;41.366;2.072;2023-10-09T13:56:19;12.63;;;6.97;;
56039;SDS011;43937;41.366;2.072;2023-10-09T13:58:50;12.85;;;6.25;;
56039;SDS011;43937;41.366;2.072;2023-10-09T14:01:17;12.32;;;6.70;;
56039;SDS011;43937;41.366;2.072;2023-10-09T14:03:55;13.02;;;7.50;;
56039;SDS011;43937;41.366;2.072;2023-10-09T14:06:23;14.05;;;7.03;;
56039;SDS011;43937;41.366;2.072;2023-10-09T14:09:02;11.40;;;7.53;;
56039;SDS011;43937;41.366;2.072;2023-10-09T14:11:34;16.20;;;7.47;;
56039;SDS011;43937;41.366;2.072;2023-10-09T14:14:04;10.45;;;6.75;;
56039;SDS011;43937;41.366;2.072;2023-10-09T14:16:35;12.27;;;7.00;;
56039;SDS011;43937;41.366;2.072;2023-10-09T14:19:02;12.40;;;7.32;;
56039;SDS011;43937;41.366;2.072;2023-10-09T14:21:33;12.98;;;7.47;;
56039;SDS011;43937;41.366;2.072;2023-10-09T14:24:12;9.20;;;6.15;;
56039;SDS011;43937;41.366;2.072;2023-10-09T14:26:43;14.43;;;8.00;;
56039;SDS011;43937;41.366;2.072;2023-10-09T14:29:12;16.45;;;7.40;;
56039;SDS011;43937;41.366;2.072;2023-10-09T14:31:45;12.25;;;6.90;;
56039;SDS011;43937;41.366;2.072;2023-10-09T14:34:25;11.45;;;7.53;;
56039;SDS011;43937;41.366;2.072;2023-10-09T14:37:22;14.27;;;6.88;;
56039;SDS011;43937;41.366;2.072;2023-10-09T14:39:48;13.90;;;7.68;;
56039;SDS011;43937;41.366;2.072;2023-10-09T14:42:14;9.40;;;6.95;;
56039;SDS011;43937;41.366;2.072;2023-10-09T14:44:43;11.40;;;6.88;;
56039;SDS011;43937;41.366;2.072;2023-10-09T14:47:10;13.85;;;6.90;;
56039;SDS011;43937;41.366;2.072;2023-10-09T14:49:39;16.67;;;7.53;;
56039;SDS011;43937;41.366;2.072;2023-10-09T14:52:14;12.57;;;7.15;;
56039;SDS011;43937;41.366;2.072;2023-10-09T14:54:45;13.27;;;7.47;;
56039;SDS011;43937;41.366;2.072;2023-10-09T14:59:23;10.05;;;6.40;;
56039;SDS011;43937;41.366;2.072;2023-10-09T15:01:48;12.95;;;7.43;;
56039;SDS011;43937;41.366;2.072;2023-10-09T15:04:15;11.77;;;6.22;;
56039;SDS011;43937;41.366;2.072;2023-10-09T15:06:41;12.98;;;6.78;;
56039;SDS011;43937;41.366;2.072;2023-10-09T15:09:06;13.13;;;6.35;;
56039;SDS011;43937;41.366;2.072;2023-10-09T15:11:46;17.73;;;7.05;;
56039;SDS011;43937;41.366;2.072;2023-10-09T15:14:13;14.60;;;6.97;;
56039;SDS011;43937;41.366;2.072;2023-10-09T15:16:39;12.13;;;7.47;;
56039;SDS011;43937;41.366;2.072;2023-10-09T15:19:04;20.63;;;6.40;;
56039;SDS011;43937;41.366;2.072;2023-10-09T15:21:30;11.73;;;7.40;;
56039;SDS011;43937;41.366;2.072;2023-10-09T15:23:58;15.20;;;7.43;;
56039;SDS011;43937;41.366;2.072;2023-10-09T15:26:30;12.23;;;7.00;;
56039;SDS011;43937;41.366;2.072;2023-10-09T15:28:59;19.33;;;6.93;;
56039;SDS011;43937;41.366;2.072;2023-10-09T15:31:25;13.82;;;7.03;;